Aérodrome :
LOGIN :

S'inscrire | Disclaimer

   EN    FR    IT 

 










Légende :    VFR   VFR Marginal   IFR   IFR Intensif   IFR Très Intensif
Visi : 
Plafond : 
>= 8 km
>= 3000ft
5 à 8 km
1000 à 3000 ft
1500m à 5 km
500 à 1000 ft
800 à 1500m
200 à 500 ft
< 800m
< 200 ft
Symboles :   Orages  Brouillard  Fortes neiges  Fortes précipitations  Vent > 20 kt
SIGMETs :   Divers  Orages  Givrage  Turbulence  Onde Orograph.  Cendres Volcan.






- Altitude de l'aérodrome : 1487 ft
- Code IATA : MUC


EDDM - München Franz Josef Strauss

DERNIER METAR :
  • 261820Z 24020G32KT 9999 -RA OVC023 07/04 Q1001 NOSIG

METARs EXPIRÉS :
  • 261750Z 25022G32KT 9999 -RA BKN023 OVC042 07/04 Q1001 NOSIG
  • 261720Z 25022KT 9999 -RA SCT023 OVC029 07/04 Q1000 NOSIG
  • 261650Z 25021KT 9999 -RA SCT023 OVC029 07/04 Q1000 NOSIG
  • 261620Z 25021KT 9999 -RA OVC020 07/04 Q1000 NOSIG
  • 261550Z 25021KT 9999 -RA BKN020 07/04 Q1000 NOSIG

TAF TAF EDDM
Valide du 26 à 18h jusqu'au 28 à 00h UTC


261700Z 2618/2724 25015G25KT 9999 BKN020
BECMG 2620/2622 25012KT
BECMG 2704/2706 24006KT
BECMG 2712/2714 09005KT
BECMG 2720/2722 VRB03KT



MET'MAP, la Météo Aéronautique d'un coup d'oeil ! - Copyright ORBIFLY Décembre 2007 - Disclaimer

ORBIFLY MET'MAP TEAM :

Programmation & Développement : Alexandra Zaïnal
Sur une idée originale de : Baudouin d'Aumeries
Assistance à la programmation : Marc-Olivier Méhu
Soutien technique & logistique : Manuel Goepfert

Contact : metmap@orbifly.com




SOURCES & CREDITS :

   NOAA